createdAt,value
2023-01-17T08:32:42.881Z,93700.00
2023-01-17T08:32:54.192Z,93702.00
2023-01-17T08:33:05.762Z,93702.00
2023-01-17T08:33:17.130Z,93700.00
2023-01-17T08:33:28.686Z,93698.00
2023-01-17T08:33:40.084Z,93700.00
2023-01-17T08:33:51.638Z,93698.00
2023-01-17T08:34:02.951Z,93696.00
2023-01-17T08:34:14.531Z,93696.00
2023-01-17T08:34:25.815Z,93700.00
2023-01-17T08:34:37.352Z,93696.00
2023-01-17T08:34:48.650Z,93696.00
2023-01-17T08:35:00.272Z,93696.00
2023-01-17T08:35:11.573Z,93696.00
2023-01-17T08:35:23.123Z,93694.00
2023-01-17T08:35:36.189Z,93696.00
2023-01-17T08:35:45.605Z,93696.00
2023-01-17T08:35:57.159Z,93696.00
2023-01-17T08:36:08.454Z,93694.00
2023-01-17T08:36:19.997Z,93696.00
2023-01-17T08:36:31.515Z,93696.00
2023-01-17T08:36:43.125Z,93696.00
2023-01-17T08:36:54.421Z,93692.00
2023-01-17T08:37:05.978Z,93696.00
2023-01-17T08:37:17.270Z,93698.00
2023-01-17T08:37:28.821Z,93696.00
2023-01-17T08:37:40.126Z,93696.00
2023-01-17T08:37:51.715Z,93694.00
2023-01-17T08:38:03.001Z,93694.00
2023-01-17T08:38:14.536Z,93692.00
2023-01-17T08:38:25.827Z,93692.00
2023-01-17T08:38:37.375Z,93698.00
2023-01-17T08:38:48.670Z,93698.00
2023-01-17T08:39:00.218Z,93696.00
2023-01-17T08:39:11.524Z,93696.00
2023-01-17T08:39:23.077Z,93694.00
2023-01-17T08:39:34.386Z,93694.00
2023-01-17T08:39:45.936Z,93696.00
2023-01-17T08:39:57.235Z,93694.00
2023-01-17T08:40:08.827Z,93696.00
2023-01-17T08:40:20.128Z,93696.00
2023-01-17T08:40:31.662Z,93696.00
2023-01-17T08:40:43.240Z,93696.00
2023-01-17T08:40:54.799Z,93698.00
2023-01-17T08:41:06.095Z,93698.00
2023-01-17T08:41:17.652Z,93694.00
2023-01-17T08:41:28.925Z,93694.00
2023-01-17T08:41:40.486Z,93696.00
2023-01-17T08:41:51.780Z,93694.00
2023-01-17T08:42:03.345Z,93696.00
2023-01-17T08:42:14.626Z,93692.00
2023-01-17T08:42:26.162Z,93694.00
2023-01-17T08:42:37.458Z,93694.00
2023-01-17T08:42:49.008Z,93690.00
2023-01-17T08:43:00.348Z,93696.00
2023-01-17T08:43:11.902Z,93696.00
2023-01-17T08:43:23.187Z,93694.00
2023-01-17T08:43:34.723Z,93696.00
2023-01-17T08:43:46.002Z,93698.00
2023-01-17T08:43:57.548Z,93696.00
2023-01-17T08:44:08.938Z,93696.00
2023-01-17T08:44:20.514Z,93696.00
2023-01-17T08:44:31.804Z,93698.00
2023-01-17T08:44:43.347Z,93694.00
2023-01-17T08:44:54.631Z,93698.00
2023-01-17T08:45:06.180Z,93698.00
2023-01-17T08:45:17.474Z,93698.00
2023-01-17T08:45:29.101Z,93698.00
2023-01-17T08:45:40.456Z,93696.00
2023-01-17T08:45:52.120Z,93698.00
2023-01-17T08:46:03.571Z,93700.00
2023-01-17T08:46:15.134Z,93696.00
2023-01-17T08:46:26.421Z,93696.00
2023-01-17T08:46:37.966Z,93696.00
2023-01-17T08:46:49.315Z,93694.00
2023-01-17T08:47:00.857Z,93692.00
2023-01-17T08:47:12.136Z,93694.00
2023-01-17T08:47:23.683Z,93692.00
2023-01-17T08:47:34.970Z,93692.00
2023-01-17T08:47:46.553Z,93694.00
2023-01-17T08:47:57.876Z,93694.00
2023-01-17T08:48:09.439Z,93692.00
2023-01-17T08:48:20.727Z,93690.00
2023-01-17T08:48:32.273Z,93692.00
2023-01-17T08:48:43.557Z,93692.00
2023-01-17T08:48:55.113Z,93688.00
2023-01-17T08:49:06.409Z,93692.00
2023-01-17T08:49:17.951Z,93690.00
2023-01-17T08:49:29.252Z,93692.00
2023-01-17T08:49:40.799Z,93692.00
2023-01-17T08:49:52.094Z,93692.00
2023-01-17T08:50:03.648Z,93694.00
2023-01-17T08:50:14.938Z,93692.00
2023-01-17T08:50:26.490Z,93692.00
2023-01-17T08:50:37.776Z,93690.00
2023-01-17T08:50:49.333Z,93694.00
2023-01-17T08:51:00.635Z,93694.00
2023-01-17T08:51:12.178Z,93696.00
2023-01-17T08:51:23.467Z,93696.00
2023-01-17T08:51:34.999Z,93694.00
2023-01-17T08:51:46.275Z,93692.00
2023-01-17T08:51:57.827Z,93696.00
2023-01-17T08:52:09.113Z,93696.00
2023-01-17T08:52:20.652Z,93694.00
2023-01-17T08:52:31.937Z,93696.00
2023-01-17T08:52:43.487Z,93694.00
2023-01-17T08:52:54.789Z,93694.00
2023-01-17T08:53:06.353Z,93696.00
2023-01-17T08:53:17.677Z,93694.00
2023-01-17T08:53:29.253Z,93694.00
2023-01-17T08:53:40.562Z,93694.00
2023-01-17T08:53:52.097Z,93696.00
2023-01-17T08:54:03.373Z,93694.00
2023-01-17T08:54:14.907Z,93692.00
2023-01-17T08:54:26.236Z,93694.00
2023-01-17T08:54:37.783Z,93692.00
2023-01-17T08:54:49.066Z,93692.00
2023-01-17T08:55:00.682Z,93690.00
2023-01-17T08:55:12.016Z,93692.00
2023-01-17T08:55:23.568Z,93690.00
2023-01-17T08:55:34.865Z,93690.00
2023-01-17T08:55:46.419Z,93688.00
2023-01-17T08:55:57.713Z,93686.00
2023-01-17T08:56:09.272Z,93686.00
2023-01-17T08:56:20.558Z,93686.00
2023-01-17T08:56:32.123Z,93690.00
2023-01-17T08:56:43.428Z,93690.00
2023-01-17T08:56:54.982Z,93690.00
2023-01-17T08:57:06.260Z,93692.00
2023-01-17T08:57:17.791Z,93692.00
2023-01-17T08:57:29.076Z,93690.00
2023-01-17T08:57:40.612Z,93688.00
2023-01-17T08:57:52.234Z,93690.00
2023-01-17T08:58:03.784Z,93690.00
2023-01-17T08:58:15.076Z,93690.00
2023-01-17T08:58:26.667Z,93688.00
2023-01-17T08:58:37.964Z,93684.00
2023-01-17T08:58:49.517Z,93682.00
2023-01-17T08:59:00.821Z,93684.00
2023-01-17T08:59:12.382Z,93682.00
2023-01-17T08:59:23.694Z,93684.00
2023-01-17T08:59:35.248Z,93682.00
2023-01-17T08:59:46.544Z,93684.00
2023-01-17T08:59:58.099Z,93686.00
2023-01-17T09:00:09.388Z,93682.00
2023-01-17T09:00:20.953Z,93684.00
2023-01-17T09:00:32.240Z,93686.00
2023-01-17T09:00:43.886Z,93684.00
2023-01-17T09:00:55.331Z,93684.00
2023-01-17T09:01:07.112Z,93684.00
2023-01-17T09:01:18.654Z,93686.00
2023-01-17T09:01:30.413Z,93686.00
2023-01-17T09:01:42.151Z,93688.00
2023-01-17T09:01:53.884Z,93684.00
2023-01-17T09:02:05.324Z,93692.00
2023-01-17T09:02:16.937Z,93688.00
2023-01-17T09:02:28.222Z,93686.00
2023-01-17T09:02:39.760Z,93688.00
2023-01-17T09:02:51.089Z,93688.00
2023-01-17T09:03:02.650Z,93686.00
2023-01-17T09:03:13.939Z,93684.00
2023-01-17T09:03:25.492Z,93686.00
2023-01-17T09:03:38.378Z,93684.00
2023-01-17T09:03:47.107Z,93686.00
2023-01-17T09:03:58.492Z,93684.00
2023-01-17T09:04:10.116Z,93688.00
2023-01-17T09:04:21.488Z,93686.00
2023-01-17T09:04:33.111Z,93690.00
2023-01-17T09:04:44.448Z,93688.00
2023-01-17T09:04:55.993Z,93688.00
2023-01-17T09:05:07.293Z,93686.00
2023-01-17T09:05:18.854Z,93688.00
2023-01-17T09:05:30.147Z,93686.00
2023-01-17T09:05:41.685Z,93686.00
2023-01-17T09:05:52.965Z,93684.00
2023-01-17T09:06:04.513Z,93684.00
2023-01-17T09:06:15.822Z,93688.00
2023-01-17T09:06:27.378Z,93686.00
2023-01-17T09:06:38.666Z,93684.00
2023-01-17T09:06:50.253Z,93684.00
2023-01-17T09:07:01.562Z,93686.00
2023-01-17T09:07:13.124Z,93686.00
2023-01-17T09:07:24.449Z,93686.00
2023-01-17T09:07:35.994Z,93686.00
2023-01-17T09:07:47.270Z,93690.00
2023-01-17T09:07:58.823Z,93694.00
2023-01-17T09:08:10.108Z,93694.00
2023-01-17T09:08:21.648Z,93694.00
2023-01-17T09:08:32.960Z,93694.00
2023-01-17T09:08:46.408Z,93694.00
2023-01-17T09:08:55.624Z,93692.00
2023-01-17T09:09:07.182Z,93692.00
2023-01-17T09:09:18.484Z,93692.00
2023-01-17T09:09:30.029Z,93692.00
2023-01-17T09:09:41.309Z,93694.00
2023-01-17T09:09:52.860Z,93694.00
2023-01-17T09:10:04.130Z,93694.00
2023-01-17T09:10:15.678Z,93694.00
2023-01-17T09:10:26.977Z,93694.00
2023-01-17T09:10:38.538Z,93696.00
2023-01-17T09:10:49.823Z,93694.00
2023-01-17T09:11:01.367Z,93692.00
2023-01-17T09:11:12.649Z,93692.00
2023-01-17T09:11:24.201Z,93694.00
2023-01-17T09:11:35.532Z,93694.00
2023-01-17T09:11:47.089Z,93696.00
2023-01-17T09:11:58.378Z,93694.00
2023-01-17T09:12:09.960Z,93696.00
2023-01-17T09:12:21.238Z,93696.00
2023-01-17T09:12:32.790Z,93692.00
2023-01-17T09:12:44.095Z,93694.00
2023-01-17T09:12:55.660Z,93692.00
2023-01-17T09:13:06.994Z,93692.00
2023-01-17T09:13:18.550Z,93694.00
2023-01-17T09:13:29.831Z,93692.00
2023-01-17T09:13:41.370Z,93692.00
2023-01-17T09:13:52.700Z,93690.00
2023-01-17T09:14:04.243Z,93692.00
2023-01-17T09:14:15.582Z,93692.00
2023-01-17T09:14:27.212Z,93690.00
2023-01-17T09:14:38.502Z,93690.00
2023-01-17T09:14:50.086Z,93688.00
2023-01-17T09:15:01.384Z,93690.00
2023-01-17T09:15:12.923Z,93690.00
2023-01-17T09:15:24.228Z,93688.00
2023-01-17T09:15:35.780Z,93688.00
2023-01-17T09:15:47.065Z,93690.00
2023-01-17T09:15:58.604Z,93690.00
2023-01-17T09:16:10.013Z,93690.00
2023-01-17T09:16:21.637Z,93690.00
2023-01-17T09:16:33.060Z,93692.00
2023-01-17T09:16:44.701Z,93692.00
2023-01-17T09:16:56.060Z,93690.00
2023-01-17T09:17:07.639Z,93690.00
2023-01-17T09:17:18.917Z,93690.00
2023-01-17T09:17:30.487Z,93696.00
2023-01-17T09:17:41.791Z,93694.00
2023-01-17T09:17:53.347Z,93692.00
2023-01-17T09:18:04.671Z,93694.00
2023-01-17T09:18:16.219Z,93692.00
2023-01-17T09:18:27.518Z,93690.00
2023-01-17T09:18:39.061Z,93694.00
2023-01-17T09:18:50.337Z,93692.00
2023-01-17T09:19:01.921Z,93688.00
2023-01-17T09:19:13.224Z,93694.00
2023-01-17T09:19:24.772Z,93690.00
2023-01-17T09:19:36.064Z,93692.00
2023-01-17T09:19:47.632Z,93692.00
2023-01-17T09:19:58.942Z,93690.00
2023-01-17T09:20:10.490Z,93690.00
2023-01-17T09:20:21.771Z,93688.00
2023-01-17T09:20:33.314Z,93690.00
2023-01-17T09:20:44.611Z,93690.00
2023-01-17T09:20:56.166Z,93692.00
2023-01-17T09:21:07.475Z,93690.00
2023-01-17T09:21:19.032Z,93690.00
2023-01-17T09:21:30.329Z,93694.00
2023-01-17T09:21:41.873Z,93692.00
2023-01-17T09:21:53.148Z,93690.00
2023-01-17T09:22:04.686Z,93690.00
2023-01-17T09:22:15.985Z,93688.00
2023-01-17T09:22:27.527Z,93694.00
2023-01-17T09:22:38.820Z,93692.00
2023-01-17T09:22:50.370Z,93692.00
2023-01-17T09:23:01.657Z,93692.00
2023-01-17T09:23:13.213Z,93690.00
2023-01-17T09:23:24.514Z,93690.00
2023-01-17T09:23:36.058Z,93690.00
2023-01-17T09:23:47.370Z,93690.00
2023-01-17T09:23:58.916Z,93692.00
2023-01-17T09:24:10.225Z,93692.00
2023-01-17T09:24:21.762Z,93694.00
2023-01-17T09:24:33.059Z,93692.00
2023-01-17T09:24:44.614Z,93690.00
2023-01-17T09:24:55.897Z,93690.00
2023-01-17T09:25:07.458Z,93690.00
2023-01-17T09:25:18.765Z,93692.00
2023-01-17T09:25:30.314Z,93690.00
2023-01-17T09:25:41.631Z,93690.00
2023-01-17T09:25:53.208Z,93688.00
2023-01-17T09:26:04.485Z,93686.00
2023-01-17T09:26:16.020Z,93686.00
2023-01-17T09:26:27.380Z,93686.00
2023-01-17T09:26:38.953Z,93684.00
2023-01-17T09:26:50.251Z,93686.00
2023-01-17T09:27:01.789Z,93688.00
2023-01-17T09:27:13.074Z,93692.00
2023-01-17T09:27:24.635Z,93692.00
2023-01-17T09:27:35.920Z,93688.00
2023-01-17T09:27:47.469Z,93692.00
2023-01-17T09:27:58.756Z,93690.00
2023-01-17T09:28:10.300Z,93690.00
2023-01-17T09:28:21.588Z,93696.00
2023-01-17T09:28:33.128Z,93692.00
2023-01-17T09:28:44.420Z,93694.00
2023-01-17T09:28:55.981Z,93694.00
2023-01-17T09:29:07.275Z,93692.00
2023-01-17T09:29:18.852Z,93698.00
2023-01-17T09:29:30.125Z,93696.00
2023-01-17T09:29:41.680Z,93698.00
2023-01-17T09:29:52.976Z,93694.00
2023-01-17T09:30:04.536Z,93692.00
2023-01-17T09:30:15.826Z,93692.00
2023-01-17T09:30:27.463Z,93692.00
2023-01-17T09:30:38.848Z,93692.00
2023-01-17T09:30:50.439Z,93694.00
2023-01-17T09:31:01.773Z,93692.00
2023-01-17T09:31:13.323Z,93692.00
2023-01-17T09:31:24.609Z,93694.00
2023-01-17T09:31:36.167Z,93692.00
2023-01-17T09:31:47.459Z,93694.00
2023-01-17T09:31:59.003Z,93694.00
2023-01-17T09:32:10.305Z,93694.00
2023-01-17T09:32:21.872Z,93698.00
2023-01-17T09:32:33.168Z,93698.00
2023-01-17T09:32:44.730Z,93694.00
2023-01-17T09:32:56.019Z,93698.00
2023-01-17T09:33:07.587Z,93698.00
2023-01-17T09:33:18.874Z,93698.00
2023-01-17T09:33:30.419Z,93702.00
2023-01-17T09:33:41.702Z,93700.00
2023-01-17T09:33:53.249Z,93700.00
2023-01-17T09:34:04.520Z,93698.00
2023-01-17T09:34:16.070Z,93696.00
2023-01-17T09:34:27.583Z,93694.00
2023-01-17T09:34:39.144Z,93698.00
2023-01-17T09:34:50.445Z,93696.00
2023-01-17T09:35:02.003Z,93692.00
2023-01-17T09:35:13.300Z,93694.00
2023-01-17T09:35:24.846Z,93694.00
2023-01-17T09:35:36.129Z,93694.00
2023-01-17T09:35:47.692Z,93698.00
2023-01-17T09:35:58.992Z,93698.00
2023-01-17T09:36:10.537Z,93700.00
2023-01-17T09:36:21.828Z,93700.00
2023-01-17T09:36:33.385Z,93698.00
2023-01-17T09:36:44.679Z,93698.00
2023-01-17T09:36:56.234Z,93698.00
2023-01-17T09:37:07.526Z,93698.00
2023-01-17T09:37:19.080Z,93698.00
2023-01-17T09:37:30.376Z,93698.00
2023-01-17T09:37:41.946Z,93696.00
2023-01-17T09:37:53.247Z,93702.00
2023-01-17T09:38:04.789Z,93700.00
2023-01-17T09:38:16.063Z,93698.00
2023-01-17T09:38:27.625Z,93702.00
2023-01-17T09:38:38.930Z,93700.00
2023-01-17T09:38:50.491Z,93698.00
2023-01-17T09:39:01.795Z,93696.00
2023-01-17T09:39:13.351Z,93700.00
2023-01-17T09:39:24.648Z,93698.00
2023-01-17T09:39:36.243Z,93702.00
2023-01-17T09:39:47.532Z,93702.00
2023-01-17T09:39:59.065Z,93700.00
2023-01-17T09:40:10.353Z,93698.00
2023-01-17T09:40:21.974Z,93700.00
2023-01-17T09:40:33.262Z,93700.00
2023-01-17T09:40:44.832Z,93700.00
2023-01-17T09:40:56.128Z,93700.00
2023-01-17T09:41:07.669Z,93702.00
2023-01-17T09:41:18.950Z,93700.00
2023-01-17T09:41:30.488Z,93700.00
2023-01-17T09:41:41.770Z,93704.00
2023-01-17T09:41:53.336Z,93702.00
2023-01-17T09:42:04.619Z,93702.00
2023-01-17T09:42:16.165Z,93702.00
2023-01-17T09:42:27.454Z,93706.00
2023-01-17T09:42:39.012Z,93704.00
2023-01-17T09:42:50.296Z,93704.00
2023-01-17T09:43:01.837Z,93706.00
2023-01-17T09:43:13.127Z,93706.00
2023-01-17T09:43:24.681Z,93704.00
2023-01-17T09:43:35.988Z,93702.00
2023-01-17T09:43:47.560Z,93706.00
2023-01-17T09:43:58.855Z,93704.00
2023-01-17T09:44:10.397Z,93702.00
2023-01-17T09:44:21.673Z,93704.00
2023-01-17T09:44:33.232Z,93704.00
2023-01-17T09:44:44.574Z,93702.00
2023-01-17T09:44:56.129Z,93704.00
2023-01-17T09:45:07.429Z,93704.00
2023-01-17T09:45:18.980Z,93704.00
2023-01-17T09:45:30.273Z,93708.00
2023-01-17T09:45:41.855Z,93706.00
2023-01-17T09:45:53.272Z,93702.00
2023-01-17T09:46:04.988Z,93700.00
2023-01-17T09:46:16.400Z,93702.00
2023-01-17T09:46:27.988Z,93702.00
2023-01-17T09:46:39.286Z,93700.00
2023-01-17T09:46:50.822Z,93700.00
2023-01-17T09:47:02.124Z,93700.00
2023-01-17T09:47:13.733Z,93698.00
2023-01-17T09:47:25.132Z,93700.00
2023-01-17T09:47:36.748Z,93700.00
2023-01-17T09:47:48.035Z,93700.00
2023-01-17T09:47:59.586Z,93700.00
2023-01-17T09:48:10.908Z,93702.00
2023-01-17T09:48:22.457Z,93700.00
2023-01-17T09:48:33.732Z,93704.00
2023-01-17T09:48:45.289Z,93700.00
2023-01-17T09:48:56.581Z,93696.00
2023-01-17T09:49:08.123Z,93698.00
2023-01-17T09:49:19.417Z,93698.00
2023-01-17T09:49:30.962Z,93696.00
2023-01-17T09:49:42.252Z,93696.00
2023-01-17T09:49:53.842Z,93696.00
2023-01-17T09:50:05.119Z,93698.00
2023-01-17T09:50:16.663Z,93696.00
2023-01-17T09:50:27.958Z,93694.00
2023-01-17T09:50:39.500Z,93694.00
2023-01-17T09:50:50.791Z,93698.00
2023-01-17T09:51:02.340Z,93698.00
2023-01-17T09:51:13.620Z,93696.00
2023-01-17T09:51:25.152Z,93694.00
2023-01-17T09:51:36.438Z,93702.00
2023-01-17T09:51:47.984Z,93698.00
2023-01-17T09:51:59.268Z,93700.00
2023-01-17T09:52:10.812Z,93696.00
2023-01-17T09:52:22.101Z,93698.00
2023-01-17T09:52:33.694Z,93698.00
2023-01-17T09:52:45.001Z,93700.00
2023-01-17T09:52:56.543Z,93696.00
2023-01-17T09:53:07.831Z,93694.00
2023-01-17T09:53:19.372Z,93694.00
2023-01-17T09:53:30.671Z,93698.00
2023-01-17T09:53:42.221Z,93700.00
2023-01-17T09:53:53.523Z,93700.00
2023-01-17T09:54:05.110Z,93702.00
2023-01-17T09:54:16.400Z,93704.00
2023-01-17T09:54:27.944Z,93700.00
2023-01-17T09:54:39.212Z,93702.00
2023-01-17T09:54:50.751Z,93704.00
2023-01-17T09:55:02.050Z,93706.00
2023-01-17T09:55:13.599Z,93706.00
2023-01-17T09:55:24.891Z,93706.00
2023-01-17T09:55:36.431Z,93706.00
2023-01-17T09:55:47.738Z,93708.00
2023-01-17T09:55:59.317Z,93708.00
2023-01-17T09:56:10.635Z,93708.00
2023-01-17T09:56:22.184Z,93706.00
2023-01-17T09:56:33.463Z,93710.00
2023-01-17T09:56:44.997Z,93704.00
2023-01-17T09:56:56.270Z,93708.00
2023-01-17T09:57:07.813Z,93706.00
2023-01-17T09:57:19.100Z,93708.00
2023-01-17T09:57:30.637Z,93704.00
2023-01-17T09:57:41.924Z,93706.00
2023-01-17T09:57:53.455Z,93706.00
2023-01-17T09:58:04.733Z,93706.00
2023-01-17T09:58:16.276Z,93708.00
2023-01-17T09:58:27.574Z,93708.00
2023-01-17T09:58:39.125Z,93708.00
2023-01-17T09:58:50.429Z,93706.00
2023-01-17T09:59:01.971Z,93706.00
2023-01-17T09:59:15.407Z,93706.00
2023-01-17T09:59:32.179Z,93706.00
2023-01-17T09:59:36.034Z,93706.00
2023-01-17T09:59:58.629Z,93702.00
2023-01-17T10:00:03.632Z,93702.00
2023-01-17T10:00:11.095Z,93700.00
2023-01-17T10:00:22.397Z,93704.00
2023-01-17T10:00:33.972Z,93704.00
2023-01-17T10:00:45.262Z,93704.00
2023-01-17T10:00:56.959Z,93704.00
2023-01-17T10:01:08.463Z,93702.00
2023-01-17T10:01:20.358Z,93706.00
2023-01-17T10:01:31.971Z,93698.00
2023-01-17T10:01:43.858Z,93704.00
2023-01-17T10:01:55.525Z,93700.00
2023-01-17T10:02:07.492Z,93700.00
2023-01-17T10:02:19.238Z,93700.00
2023-01-17T10:02:31.135Z,93698.00
2023-01-17T10:02:42.560Z,93702.00
2023-01-17T10:02:54.353Z,93700.00
2023-01-17T10:03:05.900Z,93698.00
2023-01-17T10:03:17.756Z,93700.00
2023-01-17T10:03:29.387Z,93698.00
2023-01-17T10:03:41.218Z,93696.00
2023-01-17T10:03:52.739Z,93696.00
2023-01-17T10:04:04.503Z,93696.00
2023-01-17T10:04:15.971Z,93694.00
2023-01-17T10:04:27.584Z,93698.00
2023-01-17T10:04:38.860Z,93696.00
2023-01-17T10:04:50.463Z,93696.00
2023-01-17T10:05:01.792Z,93700.00
2023-01-17T10:05:13.520Z,93696.00
2023-01-17T10:05:24.859Z,93696.00
2023-01-17T10:05:36.433Z,93696.00
2023-01-17T10:05:47.720Z,93696.00
2023-01-17T10:05:59.263Z,93696.00
2023-01-17T10:06:10.565Z,93696.00
2023-01-17T10:06:22.121Z,93694.00
2023-01-17T10:06:33.409Z,93694.00
2023-01-17T10:06:44.968Z,93694.00
2023-01-17T10:06:56.257Z,93694.00
2023-01-17T10:07:07.812Z,93696.00
2023-01-17T10:07:19.119Z,93698.00
2023-01-17T10:07:30.693Z,93694.00
2023-01-17T10:07:41.979Z,93694.00
2023-01-17T10:07:53.526Z,93694.00
2023-01-17T10:08:04.868Z,93694.00
2023-01-17T10:08:16.411Z,93698.00
2023-01-17T10:08:27.708Z,93696.00
2023-01-17T10:08:39.261Z,93694.00
2023-01-17T10:08:50.552Z,93694.00
2023-01-17T10:09:02.142Z,93694.00
2023-01-17T10:09:13.423Z,93700.00
2023-01-17T10:09:24.976Z,93698.00
2023-01-17T10:09:36.278Z,93698.00
2023-01-17T10:09:47.812Z,93698.00
2023-01-17T10:09:59.109Z,93696.00
2023-01-17T10:10:10.661Z,93700.00
2023-01-17T10:10:21.989Z,93700.00
2023-01-17T10:10:33.546Z,93698.00
2023-01-17T10:10:44.844Z,93700.00
2023-01-17T10:10:56.385Z,93696.00
2023-01-17T10:11:07.668Z,93702.00
2023-01-17T10:11:19.206Z,93698.00
2023-01-17T10:11:30.484Z,93698.00
2023-01-17T10:11:42.033Z,93696.00
2023-01-17T10:11:53.310Z,93694.00
2023-01-17T10:12:04.857Z,93696.00
2023-01-17T10:12:16.144Z,93698.00
2023-01-17T10:12:27.698Z,93698.00
2023-01-17T10:12:38.990Z,93696.00
2023-01-17T10:12:50.554Z,93694.00
2023-01-17T10:13:01.841Z,93692.00
2023-01-17T10:13:13.399Z,93692.00
2023-01-17T10:13:24.686Z,93694.00
2023-01-17T10:13:36.245Z,93692.00
2023-01-17T10:13:47.526Z,93690.00
2023-01-17T10:13:59.075Z,93690.00
2023-01-17T10:14:10.357Z,93688.00
2023-01-17T10:14:21.891Z,93688.00
2023-01-17T10:14:33.185Z,93688.00
2023-01-17T10:14:44.732Z,93688.00
2023-01-17T10:14:56.026Z,93686.00
2023-01-17T10:15:07.572Z,93688.00
2023-01-17T10:15:18.859Z,93686.00
2023-01-17T10:15:30.433Z,93686.00
2023-01-17T10:15:41.726Z,93686.00
2023-01-17T10:15:53.280Z,93688.00
2023-01-17T10:16:04.563Z,93686.00
2023-01-17T10:16:16.178Z,93690.00
2023-01-17T10:16:27.548Z,93688.00
2023-01-17T10:16:39.177Z,93686.00
2023-01-17T10:16:50.507Z,93686.00
2023-01-17T10:17:02.068Z,93690.00
2023-01-17T10:17:13.348Z,93688.00
2023-01-17T10:17:24.894Z,93692.00
2023-01-17T10:17:36.339Z,93690.00
2023-01-17T10:17:47.912Z,93688.00
2023-01-17T10:17:59.205Z,93686.00
2023-01-17T10:18:19.079Z,93686.00
2023-01-17T10:18:30.013Z,93688.00
2023-01-17T10:18:34.593Z,93690.00
2023-01-17T10:18:45.908Z,93690.00
2023-01-17T10:18:57.458Z,93686.00
2023-01-17T10:19:08.731Z,93686.00
2023-01-17T10:19:20.265Z,93684.00
2023-01-17T10:19:31.548Z,93686.00
2023-01-17T10:19:43.090Z,93686.00
2023-01-17T10:19:54.393Z,93686.00
2023-01-17T10:20:05.942Z,93686.00
2023-01-17T10:20:17.226Z,93690.00
2023-01-17T10:20:28.794Z,93688.00
2023-01-17T10:20:40.091Z,93690.00
2023-01-17T10:20:51.644Z,93690.00
2023-01-17T10:21:02.935Z,93690.00
2023-01-17T10:21:14.487Z,93688.00
2023-01-17T10:21:25.773Z,93692.00
2023-01-17T10:21:37.337Z,93692.00
2023-01-17T10:21:48.625Z,93688.00
2023-01-17T10:22:00.171Z,93692.00
2023-01-17T10:22:11.445Z,93694.00
2023-01-17T10:22:22.982Z,93692.00
2023-01-17T10:22:34.271Z,93692.00
2023-01-17T10:22:45.820Z,93692.00
2023-01-17T10:22:57.109Z,93692.00
2023-01-17T10:23:08.674Z,93686.00
2023-01-17T10:23:19.953Z,93688.00
2023-01-17T10:23:31.502Z,93696.00
2023-01-17T10:23:42.818Z,93688.00
2023-01-17T10:23:54.380Z,93692.00
2023-01-17T10:24:05.680Z,93694.00
2023-01-17T10:24:17.226Z,93694.00
2023-01-17T10:24:28.517Z,93694.00
2023-01-17T10:24:40.064Z,93696.00
2023-01-17T10:24:51.355Z,93696.00
2023-01-17T10:25:02.997Z,93694.00
2023-01-17T10:25:14.305Z,93694.00
2023-01-17T10:25:25.863Z,93694.00
2023-01-17T10:25:37.148Z,93696.00
2023-01-17T10:25:48.753Z,93696.00
2023-01-17T10:26:00.055Z,93698.00
2023-01-17T10:26:11.620Z,93698.00
2023-01-17T10:26:22.917Z,93696.00
2023-01-17T10:26:34.482Z,93694.00
2023-01-17T10:26:45.776Z,93696.00
2023-01-17T10:26:57.320Z,93696.00
2023-01-17T10:27:08.655Z,93698.00
2023-01-17T10:27:20.198Z,93698.00
2023-01-17T10:27:31.489Z,93700.00
2023-01-17T10:27:43.043Z,93696.00
2023-01-17T10:27:54.346Z,93698.00
2023-01-17T10:28:05.901Z,93694.00
2023-01-17T10:28:17.195Z,93696.00
2023-01-17T10:28:28.749Z,93696.00
2023-01-17T10:28:40.034Z,93698.00
2023-01-17T10:28:51.641Z,93696.00
2023-01-17T10:29:02.963Z,93698.00
2023-01-17T10:29:14.507Z,93700.00
2023-01-17T10:29:25.799Z,93700.00
2023-01-17T10:29:37.350Z,93702.00
2023-01-17T10:29:48.657Z,93702.00
2023-01-17T10:30:00.194Z,93704.00
2023-01-17T10:30:11.477Z,93702.00
2023-01-17T10:30:23.021Z,93706.00
2023-01-17T10:30:34.335Z,93704.00
2023-01-17T10:30:45.918Z,93704.00
2023-01-17T10:30:57.325Z,93704.00
2023-01-17T10:31:08.964Z,93704.00
2023-01-17T10:31:20.386Z,93704.00
2023-01-17T10:31:31.951Z,93708.00
2023-01-17T10:31:43.269Z,93702.00
2023-01-17T10:31:54.815Z,93706.00
2023-01-17T10:32:06.129Z,93706.00
2023-01-17T10:32:17.724Z,93706.00
2023-01-17T10:32:29.021Z,93706.00
2023-01-17T10:32:40.582Z,93710.00
2023-01-17T10:32:51.873Z,93704.00
2023-01-17T10:33:03.449Z,93706.00
2023-01-17T10:33:14.769Z,93706.00
2023-01-17T10:33:26.359Z,93706.00
2023-01-17T10:33:37.660Z,93706.00
2023-01-17T10:33:49.201Z,93706.00
2023-01-17T10:34:00.513Z,93708.00
2023-01-17T10:34:12.296Z,93708.00
2023-01-17T10:34:23.601Z,93708.00
2023-01-17T10:34:35.149Z,93708.00
2023-01-17T10:34:46.447Z,93706.00
2023-01-17T10:34:58.008Z,93708.00
2023-01-17T10:35:09.297Z,93706.00
2023-01-17T10:35:20.865Z,93706.00
2023-01-17T10:35:32.177Z,93706.00
2023-01-17T10:35:43.741Z,93708.00
2023-01-17T10:35:55.031Z,93706.00
2023-01-17T10:36:06.730Z,93706.00
2023-01-17T10:36:18.022Z,93710.00
2023-01-17T10:36:29.568Z,93706.00
2023-01-17T10:36:40.884Z,93706.00
2023-01-17T10:36:52.451Z,93706.00
2023-01-17T10:37:03.741Z,93706.00
2023-01-17T10:37:15.288Z,93710.00
2023-01-17T10:37:26.586Z,93706.00
2023-01-17T10:37:38.144Z,93708.00
2023-01-17T10:37:49.456Z,93706.00
2023-01-17T10:38:01.002Z,93706.00
2023-01-17T10:38:12.285Z,93706.00
2023-01-17T10:38:23.842Z,93706.00
2023-01-17T10:38:35.132Z,93702.00
2023-01-17T10:38:46.672Z,93706.00
2023-01-17T10:38:57.992Z,93706.00
2023-01-17T10:39:09.537Z,93704.00
2023-01-17T10:39:20.823Z,93706.00
2023-01-17T10:39:32.352Z,93704.00
2023-01-17T10:39:43.626Z,93702.00
2023-01-17T10:39:55.186Z,93702.00
2023-01-17T10:40:06.488Z,93700.00
2023-01-17T10:40:18.053Z,93702.00
2023-01-17T10:40:29.335Z,93702.00
2023-01-17T10:40:40.903Z,93700.00
2023-01-17T10:40:52.212Z,93700.00
2023-01-17T10:41:03.748Z,93702.00
2023-01-17T10:41:15.073Z,93702.00
2023-01-17T10:41:26.626Z,93702.00
2023-01-17T10:41:37.911Z,93700.00
2023-01-17T10:41:49.474Z,93700.00
2023-01-17T10:42:00.774Z,93698.00
2023-01-17T10:42:12.314Z,93698.00
2023-01-17T10:42:23.601Z,93700.00
2023-01-17T10:42:35.132Z,93696.00
2023-01-17T10:42:47.510Z,93700.00
2023-01-17T10:42:58.088Z,93696.00
2023-01-17T10:43:09.660Z,93696.00
2023-01-17T10:43:20.955Z,93696.00
2023-01-17T10:43:32.508Z,93696.00
2023-01-17T10:43:43.798Z,93696.00
2023-01-17T10:43:55.333Z,93698.00
2023-01-17T10:44:06.659Z,93694.00
2023-01-17T10:44:18.222Z,93698.00
2023-01-17T10:44:29.525Z,93698.00
2023-01-17T10:44:41.071Z,93700.00
2023-01-17T10:44:52.368Z,93700.00
2023-01-17T10:45:03.927Z,93698.00
2023-01-17T10:45:15.234Z,93700.00
2023-01-17T10:45:26.796Z,93698.00
2023-01-17T10:45:38.088Z,93696.00
2023-01-17T10:45:49.693Z,93698.00
2023-01-17T10:46:01.081Z,93696.00
2023-01-17T10:46:12.762Z,93696.00
2023-01-17T10:46:24.204Z,93700.00
2023-01-17T10:46:35.783Z,93694.00
2023-01-17T10:46:47.081Z,93696.00
2023-01-17T10:46:58.650Z,93702.00